sensor_id;sensor_type;location;lat;lon;timestamp;temperature;humidity
38938;DHT22;24727;51.974;20.868;2024-03-23T00:55:34;8.50;6.70
38938;DHT22;24727;51.974;20.868;2024-03-23T00:58:00;8.50;5.80
38938;DHT22;24727;51.974;20.868;2024-03-23T01:00:34;8.50;7.00
38938;DHT22;24727;51.974;20.868;2024-03-23T01:03:00;8.50;8.80
38938;DHT22;24727;51.974;20.868;2024-03-23T01:05:26;8.50;8.40
38938;DHT22;24727;51.974;20.868;2024-03-23T01:07:51;8.50;9.30
38938;DHT22;24727;51.974;20.868;2024-03-23T01:10:28;8.50;9.50
38938;DHT22;24727;51.974;20.868;2024-03-23T01:12:54;8.50;11.10
38938;DHT22;24727;51.974;20.868;2024-03-23T01:15:23;8.50;9.70
38938;DHT22;24727;51.974;20.868;2024-03-23T01:18:01;8.40;11.50
38938;DHT22;24727;51.974;20.868;2024-03-23T01:20:33;8.40;11.90
38938;DHT22;24727;51.974;20.868;2024-03-23T01:22:59;8.40;12.20
38938;DHT22;24727;51.974;20.868;2024-03-23T01:28:33;8.40;14.80
38938;DHT22;24727;51.974;20.868;2024-03-23T01:30:59;8.40;14.80
38938;DHT22;24727;51.974;20.868;2024-03-23T01:33:28;8.40;15.70
38938;DHT22;24727;51.974;20.868;2024-03-23T01:35:54;8.40;16.30
38938;DHT22;24727;51.974;20.868;2024-03-23T01:38:25;8.40;17.00
38938;DHT22;24727;51.974;20.868;2024-03-23T01:41:05;8.30;17.70
38938;DHT22;24727;51.974;20.868;2024-03-23T01:43:31;8.40;18.60
38938;DHT22;24727;51.974;20.868;2024-03-23T01:45:57;8.40;19.10
38938;DHT22;24727;51.974;20.868;2024-03-23T01:48:23;8.30;20.40
38938;DHT22;24727;51.974;20.868;2024-03-23T01:50:50;8.30;21.30
38938;DHT22;24727;51.974;20.868;2024-03-23T01:53:16;8.40;21.60
38938;DHT22;24727;51.974;20.868;2024-03-23T01:55:43;8.40;22.80
38938;DHT22;24727;51.974;20.868;2024-03-23T01:58:09;8.40;23.60
38938;DHT22;24727;51.974;20.868;2024-03-23T02:00:44;8.40;24.20
38938;DHT22;24727;51.974;20.868;2024-03-23T02:03:27;8.40;25.20
38938;DHT22;24727;51.974;20.868;2024-03-23T02:05:54;8.40;26.40
38938;DHT22;24727;51.974;20.868;2024-03-23T02:08:21;8.40;26.20
38938;DHT22;24727;51.974;20.868;2024-03-23T02:10:48;8.40;27.30
38938;DHT22;24727;51.974;20.868;2024-03-23T02:13:15;8.40;27.70
38938;DHT22;24727;51.974;20.868;2024-03-23T02:15:42;8.40;27.70
38938;DHT22;24727;51.974;20.868;2024-03-23T02:18:08;8.50;28.20
38938;DHT22;24727;51.974;20.868;2024-03-23T02:20:42;8.40;28.30
38938;DHT22;24727;51.974;20.868;2024-03-23T02:23:17;8.40;28.30
38938;DHT22;24727;51.974;20.868;2024-03-23T02:25:46;8.50;28.60
38938;DHT22;24727;51.974;20.868;2024-03-23T02:28:21;8.50;28.90
38938;DHT22;24727;51.974;20.868;2024-03-23T02:30:49;8.40;29.10
38938;DHT22;24727;51.974;20.868;2024-03-23T02:33:15;8.40;29.30
38938;DHT22;24727;51.974;20.868;2024-03-23T02:35:45;8.40;29.70
38938;DHT22;24727;51.974;20.868;2024-03-23T02:38:20;8.50;30.90
38938;DHT22;24727;51.974;20.868;2024-03-23T02:40:52;8.50;30.80
38938;DHT22;24727;51.974;20.868;2024-03-23T02:43:18;8.50;30.30
38938;DHT22;24727;51.974;20.868;2024-03-23T02:45:47;8.50;30.00
38938;DHT22;24727;51.974;20.868;2024-03-23T02:48:16;8.50;30.20
38938;DHT22;24727;51.974;20.868;2024-03-23T02:50:42;8.40;30.20
38938;DHT22;24727;51.974;20.868;2024-03-23T02:53:10;8.40;30.60
38938;DHT22;24727;51.974;20.868;2024-03-23T02:55:36;8.40;30.80
38938;DHT22;24727;51.974;20.868;2024-03-23T02:58:04;8.40;31.00
38938;DHT22;24727;51.974;20.868;2024-03-23T03:00:38;8.40;31.40
38938;DHT22;24727;51.974;20.868;2024-03-23T03:03:07;8.40;31.90
38938;DHT22;24727;51.974;20.868;2024-03-23T03:05:54;8.40;32.30
38938;DHT22;24727;51.974;20.868;2024-03-23T03:08:23;8.40;32.30
38938;DHT22;24727;51.974;20.868;2024-03-23T03:10:49;8.40;32.50
38938;DHT22;24727;51.974;20.868;2024-03-23T03:13:15;8.40;33.00
38938;DHT22;24727;51.974;20.868;2024-03-23T03:15:43;8.30;33.20
38938;DHT22;24727;51.974;20.868;2024-03-23T03:18:09;8.30;33.80
38938;DHT22;24727;51.974;20.868;2024-03-23T03:20:54;8.30;34.10
38938;DHT22;24727;51.974;20.868;2024-03-23T03:23:20;8.30;35.00
38938;DHT22;24727;51.974;20.868;2024-03-23T03:25:52;8.30;35.50
38938;DHT22;24727;51.974;20.868;2024-03-23T03:28:18;8.30;35.90
38938;DHT22;24727;51.974;20.868;2024-03-23T03:30:46;8.30;36.60
38938;DHT22;24727;51.974;20.868;2024-03-23T03:33:12;8.30;37.20
38938;DHT22;24727;51.974;20.868;2024-03-23T03:35:44;8.30;37.80
38938;DHT22;24727;51.974;20.868;2024-03-23T03:38:11;8.30;37.90
38938;DHT22;24727;51.974;20.868;2024-03-23T03:40:37;8.30;38.80
38938;DHT22;24727;51.974;20.868;2024-03-23T03:43:08;8.30;39.20
38938;DHT22;24727;51.974;20.868;2024-03-23T03:45:34;8.30;39.60
38938;DHT22;24727;51.974;20.868;2024-03-23T03:48:09;8.30;39.80
38938;DHT22;24727;51.974;20.868;2024-03-23T03:50:35;8.30;40.00
38938;DHT22;24727;51.974;20.868;2024-03-23T03:53:01;8.30;40.60
38938;DHT22;24727;51.974;20.868;2024-03-23T03:55:27;8.30;40.80
38938;DHT22;24727;51.974;20.868;2024-03-23T03:57:53;8.30;40.90
38938;DHT22;24727;51.974;20.868;2024-03-23T04:00:30;8.30;41.00
38938;DHT22;24727;51.974;20.868;2024-03-23T04:02:59;8.30;41.30
38938;DHT22;24727;51.974;20.868;2024-03-23T04:05:25;8.30;41.30
38938;DHT22;24727;51.974;20.868;2024-03-23T04:07:51;8.30;41.50
38938;DHT22;24727;51.974;20.868;2024-03-23T04:10:17;8.30;42.00
38938;DHT22;24727;51.974;20.868;2024-03-23T04:12:46;8.30;41.20
38938;DHT22;24727;51.974;20.868;2024-03-23T04:15:29;8.30;42.00
38938;DHT22;24727;51.974;20.868;2024-03-23T04:18:11;8.30;42.30
38938;DHT22;24727;51.974;20.868;2024-03-23T04:20:38;8.30;42.50
38938;DHT22;24727;51.974;20.868;2024-03-23T04:23:04;8.30;42.70
38938;DHT22;24727;51.974;20.868;2024-03-23T04:25:30;8.30;42.90
38938;DHT22;24727;51.974;20.868;2024-03-23T04:28:01;8.30;43.10
38938;DHT22;24727;51.974;20.868;2024-03-23T04:30:48;8.30;43.60
38938;DHT22;24727;51.974;20.868;2024-03-23T04:33:34;8.40;44.30
38938;DHT22;24727;51.974;20.868;2024-03-23T04:36:31;8.40;44.10
38938;DHT22;24727;51.974;20.868;2024-03-23T04:39:07;8.40;43.90
38938;DHT22;24727;51.974;20.868;2024-03-23T04:41:37;8.30;43.10
38938;DHT22;24727;51.974;20.868;2024-03-23T04:44:31;8.30;43.10
38938;DHT22;24727;51.974;20.868;2024-03-23T04:47:25;8.30;42.90
38938;DHT22;24727;51.974;20.868;2024-03-23T04:52:46;8.40;44.00
38938;DHT22;24727;51.974;20.868;2024-03-23T04:55:36;8.40;43.60
38938;DHT22;24727;51.974;20.868;2024-03-23T04:58:31;8.40;43.40
38938;DHT22;24727;51.974;20.868;2024-03-23T05:01:26;8.40;43.20
38938;DHT22;24727;51.974;20.868;2024-03-23T05:04:20;8.40;43.10
38938;DHT22;24727;51.974;20.868;2024-03-23T05:10:16;8.40;42.80
38938;DHT22;24727;51.974;20.868;2024-03-23T05:13:01;8.50;43.30
38938;DHT22;24727;51.974;20.868;2024-03-23T05:18:12;8.50;43.10
38938;DHT22;24727;51.974;20.868;2024-03-23T05:20:38;8.50;43.20
38938;DHT22;24727;51.974;20.868;2024-03-23T05:23:45;8.50;42.90
38938;DHT22;24727;51.974;20.868;2024-03-23T05:26:34;8.50;43.50
38938;DHT22;24727;51.974;20.868;2024-03-23T05:32:18;8.50;43.40
38938;DHT22;24727;51.974;20.868;2024-03-23T05:35:08;8.50;43.30
38938;DHT22;24727;51.974;20.868;2024-03-23T05:38:13;8.60;44.30
38938;DHT22;24727;51.974;20.868;2024-03-23T05:41:41;8.60;43.60
38938;DHT22;24727;51.974;20.868;2024-03-23T05:43:56;8.60;42.60
38938;DHT22;24727;51.974;20.868;2024-03-23T05:46:28;8.70;43.50
38938;DHT22;24727;51.974;20.868;2024-03-23T05:49:07;8.80;43.30
38938;DHT22;24727;51.974;20.868;2024-03-23T05:51:41;8.70;41.60
38938;DHT22;24727;51.974;20.868;2024-03-23T05:57:35;8.80;40.00
38938;DHT22;24727;51.974;20.868;2024-03-23T06:00:01;8.70;39.00
38938;DHT22;24727;51.974;20.868;2024-03-23T06:02:57;8.80;39.60
38938;DHT22;24727;51.974;20.868;2024-03-23T06:05:23;8.80;39.50
38938;DHT22;24727;51.974;20.868;2024-03-23T06:07:49;8.80;39.20
38938;DHT22;24727;51.974;20.868;2024-03-23T06:10:31;8.90;36.50
38938;DHT22;24727;51.974;20.868;2024-03-23T06:13:28;8.90;32.90
38938;DHT22;24727;51.974;20.868;2024-03-23T06:16:05;8.80;29.50
38938;DHT22;24727;51.974;20.868;2024-03-23T06:19:06;8.80;30.00
38938;DHT22;24727;51.974;20.868;2024-03-23T06:21:51;8.80;30.10
38938;DHT22;24727;51.974;20.868;2024-03-23T06:24:17;8.80;28.80
38938;DHT22;24727;51.974;20.868;2024-03-23T06:27:03;8.80;29.00
38938;DHT22;24727;51.974;20.868;2024-03-23T06:30:00;8.70;29.80
38938;DHT22;24727;51.974;20.868;2024-03-23T06:35:12;8.70;32.80
38938;DHT22;24727;51.974;20.868;2024-03-23T06:37:54;8.80;34.70
38938;DHT22;24727;51.974;20.868;2024-03-23T06:40:36;8.80;34.00
38938;DHT22;24727;51.974;20.868;2024-03-23T06:43:01;8.80;34.70
38938;DHT22;24727;51.974;20.868;2024-03-23T06:45:37;8.80;35.20
38938;DHT22;24727;51.974;20.868;2024-03-23T06:48:14;8.90;34.90
38938;DHT22;24727;51.974;20.868;2024-03-23T06:50:40;8.90;32.20
38938;DHT22;24727;51.974;20.868;2024-03-23T06:53:33;9.00;31.50
38938;DHT22;24727;51.974;20.868;2024-03-23T06:56:32;9.00;30.10
38938;DHT22;24727;51.974;20.868;2024-03-23T06:58:58;9.10;26.60
38938;DHT22;24727;51.974;20.868;2024-03-23T07:01:27;9.10;20.30
38938;DHT22;24727;51.974;20.868;2024-03-23T07:03:54;9.10;21.10
38938;DHT22;24727;51.974;20.868;2024-03-23T07:06:20;9.10;18.80
38938;DHT22;24727;51.974;20.868;2024-03-23T07:08:49;9.10;18.00
38938;DHT22;24727;51.974;20.868;2024-03-23T07:11:19;9.10;18.60
38938;DHT22;24727;51.974;20.868;2024-03-23T07:13:51;9.10;17.20
38938;DHT22;24727;51.974;20.868;2024-03-23T07:16:18;9.10;16.30
38938;DHT22;24727;51.974;20.868;2024-03-23T07:18:44;9.20;15.40
38938;DHT22;24727;51.974;20.868;2024-03-23T07:21:10;9.20;10.00
38938;DHT22;24727;51.974;20.868;2024-03-23T07:23:36;9.30;5.60
38938;DHT22;24727;51.974;20.868;2024-03-23T07:26:05;9.30;1.00
38938;DHT22;24727;51.974;20.868;2024-03-23T07:28:31;9.30;1.00
38938;DHT22;24727;51.974;20.868;2024-03-23T07:31:06;9.30;1.00
38938;DHT22;24727;51.974;20.868;2024-03-23T07:33:41;9.30;1.00
38938;DHT22;24727;51.974;20.868;2024-03-23T07:36:10;9.40;1.00
38938;DHT22;24727;51.974;20.868;2024-03-23T07:38:37;9.40;1.00
38938;DHT22;24727;51.974;20.868;2024-03-23T07:43:56;9.40;1.00
38938;DHT22;24727;51.974;20.868;2024-03-23T07:46:22;9.50;1.00
38938;DHT22;24727;51.974;20.868;2024-03-23T07:49:00;9.60;1.00
38938;DHT22;24727;51.974;20.868;2024-03-23T07:51:26;9.60;1.00
38938;DHT22;24727;51.974;20.868;2024-03-23T07:54:25;9.60;1.00
38938;DHT22;24727;51.974;20.868;2024-03-23T07:56:50;9.80;1.00
38938;DHT22;24727;51.974;20.868;2024-03-23T07:59:16;9.90;1.00
38938;DHT22;24727;51.974;20.868;2024-03-23T08:02:00;9.90;1.00
38938;DHT22;24727;51.974;20.868;2024-03-23T08:07:40;9.90;1.00
38938;DHT22;24727;51.974;20.868;2024-03-23T08:10:38;9.80;1.00
38938;DHT22;24727;51.974;20.868;2024-03-23T08:13:19;9.70;1.00
38938;DHT22;24727;51.974;20.868;2024-03-23T08:15:46;9.70;1.00
38938;DHT22;24727;51.974;20.868;2024-03-23T08:18:17;9.80;1.00
38938;DHT22;24727;51.974;20.868;2024-03-23T08:20:46;9.80;1.00
38938;DHT22;24727;51.974;20.868;2024-03-23T08:23:12;9.80;1.00
38938;DHT22;24727;51.974;20.868;2024-03-23T08:25:38;9.90;1.00
38938;DHT22;24727;51.974;20.868;2024-03-23T08:28:04;9.80;1.00
38938;DHT22;24727;51.974;20.868;2024-03-23T08:30:35;9.80;1.00
38938;DHT22;24727;51.974;20.868;2024-03-23T08:33:01;9.80;1.00
38938;DHT22;24727;51.974;20.868;2024-03-23T08:35:27;10.00;1.00
38938;DHT22;24727;51.974;20.868;2024-03-23T08:38:04;10.20;1.00
38938;DHT22;24727;51.974;20.868;2024-03-23T08:41:00;10.40;1.00
38938;DHT22;24727;51.974;20.868;2024-03-23T08:43:31;10.70;1.00
38938;DHT22;24727;51.974;20.868;2024-03-23T08:46:29;10.90;1.00
38938;DHT22;24727;51.974;20.868;2024-03-23T08:48:55;11.10;1.00
38938;DHT22;24727;51.974;20.868;2024-03-23T08:51:21;11.20;1.00
38938;DHT22;24727;51.974;20.868;2024-03-23T08:53:47;11.30;1.00
38938;DHT22;24727;51.974;20.868;2024-03-23T08:56:13;11.10;1.00
38938;DHT22;24727;51.974;20.868;2024-03-23T08:58:40;11.10;1.00
38938;DHT22;24727;51.974;20.868;2024-03-23T09:01:15;11.00;1.00
38938;DHT22;24727;51.974;20.868;2024-03-23T09:03:41;10.90;1.00
38938;DHT22;24727;51.974;20.868;2024-03-23T09:06:14;11.00;1.00
38938;DHT22;24727;51.974;20.868;2024-03-23T09:08:40;11.10;1.00
38938;DHT22;24727;51.974;20.868;2024-03-23T09:11:07;11.30;1.00
38938;DHT22;24727;51.974;20.868;2024-03-23T09:13:35;11.60;1.00
38938;DHT22;24727;51.974;20.868;2024-03-23T09:16:01;11.90;1.00
38938;DHT22;24727;51.974;20.868;2024-03-23T09:18:27;11.90;1.00
38938;DHT22;24727;51.974;20.868;2024-03-23T09:20:53;12.00;1.00
38938;DHT22;24727;51.974;20.868;2024-03-23T09:23:21;12.00;1.00
38938;DHT22;24727;51.974;20.868;2024-03-23T09:25:47;12.10;1.00
38938;DHT22;24727;51.974;20.868;2024-03-23T09:28:12;12.30;1.00
38938;DHT22;24727;51.974;20.868;2024-03-23T09:30:38;12.60;1.00
38938;DHT22;24727;51.974;20.868;2024-03-23T09:33:13;12.30;1.00
38938;DHT22;24727;51.974;20.868;2024-03-23T09:35:43;12.40;1.00
38938;DHT22;24727;51.974;20.868;2024-03-23T09:38:10;12.80;1.00
38938;DHT22;24727;51.974;20.868;2024-03-23T09:40:42;12.60;1.00
38938;DHT22;24727;51.974;20.868;2024-03-23T09:43:09;12.70;1.00
38938;DHT22;24727;51.974;20.868;2024-03-23T09:45:39;12.60;1.00
38938;DHT22;24727;51.974;20.868;2024-03-23T09:48:08;12.50;1.00
38938;DHT22;24727;51.974;20.868;2024-03-23T09:50:39;12.50;1.00
38938;DHT22;24727;51.974;20.868;2024-03-23T09:53:10;12.80;1.00
38938;DHT22;24727;51.974;20.868;2024-03-23T09:55:41;12.80;1.00
38938;DHT22;24727;51.974;20.868;2024-03-23T09:58:07;12.90;1.00
38938;DHT22;24727;51.974;20.868;2024-03-23T10:00:34;12.90;99.90
38938;DHT22;24727;51.974;20.868;2024-03-23T10:03:01;12.90;1.00
38938;DHT22;24727;51.974;20.868;2024-03-23T10:05:28;13.50;1.00
38938;DHT22;24727;51.974;20.868;2024-03-23T10:07:54;13.80;1.00
38938;DHT22;24727;51.974;20.868;2024-03-23T10:10:20;13.70;99.90
38938;DHT22;24727;51.974;20.868;2024-03-23T10:12:50;13.90;1.00
38938;DHT22;24727;51.974;20.868;2024-03-23T10:15:20;14.40;1.00
38938;DHT22;24727;51.974;20.868;2024-03-23T10:17:46;14.50;99.90
38938;DHT22;24727;51.974;20.868;2024-03-23T10:20:12;14.50;99.90
38938;DHT22;24727;51.974;20.868;2024-03-23T10:22:39;14.40;99.90
38938;DHT22;24727;51.974;20.868;2024-03-23T10:25:09;14.30;99.90
38938;DHT22;24727;51.974;20.868;2024-03-23T10:27:35;14.30;99.90
38938;DHT22;24727;51.974;20.868;2024-03-23T10:30:09;14.50;99.90
38938;DHT22;24727;51.974;20.868;2024-03-23T10:32:36;14.80;99.90
38938;DHT22;24727;51.974;20.868;2024-03-23T10:35:23;15.10;99.90
38938;DHT22;24727;51.974;20.868;2024-03-23T10:37:49;15.00;99.90
38938;DHT22;24727;51.974;20.868;2024-03-23T10:40:16;15.00;99.90
38938;DHT22;24727;51.974;20.868;2024-03-23T10:42:44;14.90;99.90
38938;DHT22;24727;51.974;20.868;2024-03-23T10:45:10;15.20;99.90
38938;DHT22;24727;51.974;20.868;2024-03-23T10:47:37;15.20;99.90
38938;DHT22;24727;51.974;20.868;2024-03-23T10:50:06;15.00;99.90
38938;DHT22;24727;51.974;20.868;2024-03-23T10:52:33;15.00;99.90
38938;DHT22;24727;51.974;20.868;2024-03-23T10:55:02;15.10;99.90
38938;DHT22;24727;51.974;20.868;2024-03-23T10:57:35;15.30;99.90
38938;DHT22;24727;51.974;20.868;2024-03-23T11:00:03;15.50;99.90
38938;DHT22;24727;51.974;20.868;2024-03-23T11:02:29;15.50;99.90
38938;DHT22;24727;51.974;20.868;2024-03-23T11:04:55;15.70;99.90
38938;DHT22;24727;51.974;20.868;2024-03-23T11:09:50;15.90;99.90
38938;DHT22;24727;51.974;20.868;2024-03-23T11:12:26;16.00;99.90
38938;DHT22;24727;51.974;20.868;2024-03-23T11:14:58;15.80;99.90
38938;DHT22;24727;51.974;20.868;2024-03-23T11:17:25;15.70;99.90
38938;DHT22;24727;51.974;20.868;2024-03-23T11:19:56;15.80;99.90
38938;DHT22;24727;51.974;20.868;2024-03-23T11:25:20;15.90;99.90
38938;DHT22;24727;51.974;20.868;2024-03-23T11:27:49;15.90;99.90
38938;DHT22;24727;51.974;20.868;2024-03-23T11:30:20;16.00;99.90
38938;DHT22;24727;51.974;20.868;2024-03-23T11:32:48;16.20;99.90
38938;DHT22;24727;51.974;20.868;2024-03-23T11:35:44;15.90;99.90
38938;DHT22;24727;51.974;20.868;2024-03-23T11:38:14;15.80;99.90
38938;DHT22;24727;51.974;20.868;2024-03-23T11:40:42;15.80;99.90
38938;DHT22;24727;51.974;20.868;2024-03-23T11:43:10;15.80;99.90
38938;DHT22;24727;51.974;20.868;2024-03-23T11:45:39;15.80;99.90
38938;DHT22;24727;51.974;20.868;2024-03-23T11:48:07;16.00;99.90
38938;DHT22;24727;51.974;20.868;2024-03-23T11:50:37;16.20;99.90
38938;DHT22;24727;51.974;20.868;2024-03-23T11:53:13;16.50;99.90
38938;DHT22;24727;51.974;20.868;2024-03-23T11:55:59;16.80;99.90
38938;DHT22;24727;51.974;20.868;2024-03-23T11:58:28;16.70;99.90
38938;DHT22;24727;51.974;20.868;2024-03-23T12:00:58;16.40;99.90
38938;DHT22;24727;51.974;20.868;2024-03-23T12:03:25;16.30;99.90
38938;DHT22;24727;51.974;20.868;2024-03-23T12:05:53;16.30;99.90
38938;DHT22;24727;51.974;20.868;2024-03-23T12:08:24;16.40;99.90
38938;DHT22;24727;51.974;20.868;2024-03-23T12:10:52;16.50;99.90
38938;DHT22;24727;51.974;20.868;2024-03-23T12:13:19;16.70;99.90
38938;DHT22;24727;51.974;20.868;2024-03-23T12:15:47;16.70;99.90
38938;DHT22;24727;51.974;20.868;2024-03-23T12:18:13;16.50;99.90
38938;DHT22;24727;51.974;20.868;2024-03-23T12:20:39;16.60;99.90
38938;DHT22;24727;51.974;20.868;2024-03-23T12:23:12;16.50;99.90
38938;DHT22;24727;51.974;20.868;2024-03-23T12:25:39;16.40;99.90
38938;DHT22;24727;51.974;20.868;2024-03-23T12:28:06;16.10;99.90
38938;DHT22;24727;51.974;20.868;2024-03-23T12:30:36;16.10;99.90
38938;DHT22;24727;51.974;20.868;2024-03-23T12:33:04;16.30;99.90
38938;DHT22;24727;51.974;20.868;2024-03-23T12:35:30;16.30;99.90
38938;DHT22;24727;51.974;20.868;2024-03-23T12:37:56;16.20;99.90
38938;DHT22;24727;51.974;20.868;2024-03-23T12:40:22;16.10;99.90
38938;DHT22;24727;51.974;20.868;2024-03-23T12:42:48;16.10;99.90
38938;DHT22;24727;51.974;20.868;2024-03-23T12:45:14;16.10;99.90
38938;DHT22;24727;51.974;20.868;2024-03-23T12:47:40;16.00;99.90
38938;DHT22;24727;51.974;20.868;2024-03-23T12:50:06;15.80;99.90
38938;DHT22;24727;51.974;20.868;2024-03-23T12:52:35;15.70;99.90
38938;DHT22;24727;51.974;20.868;2024-03-23T12:55:01;15.60;99.90
38938;DHT22;24727;51.974;20.868;2024-03-23T12:57:29;15.80;99.90
38938;DHT22;24727;51.974;20.868;2024-03-23T12:59:54;16.00;99.90
38938;DHT22;24727;51.974;20.868;2024-03-23T13:02:21;16.20;99.90
38938;DHT22;24727;51.974;20.868;2024-03-23T13:04:50;16.30;99.90
38938;DHT22;24727;51.974;20.868;2024-03-23T13:07:16;16.60;99.90
38938;DHT22;24727;51.974;20.868;2024-03-23T13:09:43;16.50;99.90
38938;DHT22;24727;51.974;20.868;2024-03-23T13:12:09;16.80;99.90
38938;DHT22;24727;51.974;20.868;2024-03-23T13:14:35;17.00;99.90
38938;DHT22;24727;51.974;20.868;2024-03-23T13:17:01;17.20;99.90
38938;DHT22;24727;51.974;20.868;2024-03-23T13:19:28;17.20;99.90
38938;DHT22;24727;51.974;20.868;2024-03-23T13:21:57;17.40;99.90
38938;DHT22;24727;51.974;20.868;2024-03-23T13:24:23;17.50;99.90
38938;DHT22;24727;51.974;20.868;2024-03-23T13:26:51;17.60;99.90
38938;DHT22;24727;51.974;20.868;2024-03-23T13:29:18;17.20;99.90
38938;DHT22;24727;51.974;20.868;2024-03-23T13:31:48;17.30;99.90
38938;DHT22;24727;51.974;20.868;2024-03-23T13:34:16;17.40;99.90
38938;DHT22;24727;51.974;20.868;2024-03-23T13:36:43;17.40;99.90
38938;DHT22;24727;51.974;20.868;2024-03-23T13:39:10;17.40;99.90
38938;DHT22;24727;51.974;20.868;2024-03-23T13:41:39;17.40;99.90
38938;DHT22;24727;51.974;20.868;2024-03-23T13:44:06;17.40;99.90
38938;DHT22;24727;51.974;20.868;2024-03-23T13:46:32;17.20;99.90
38938;DHT22;24727;51.974;20.868;2024-03-23T13:48:59;17.40;99.90
38938;DHT22;24727;51.974;20.868;2024-03-23T13:51:25;17.20;99.90
38938;DHT22;24727;51.974;20.868;2024-03-23T13:53:55;17.10;99.90
38938;DHT22;24727;51.974;20.868;2024-03-23T13:56:22;16.80;99.90
38938;DHT22;24727;51.974;20.868;2024-03-23T13:58:48;16.90;99.90
38938;DHT22;24727;51.974;20.868;2024-03-23T14:01:15;16.90;99.90
38938;DHT22;24727;51.974;20.868;2024-03-23T14:03:42;16.80;99.90
38938;DHT22;24727;51.974;20.868;2024-03-23T14:06:08;16.60;99.90
38938;DHT22;24727;51.974;20.868;2024-03-23T14:08:35;16.50;99.90
38938;DHT22;24727;51.974;20.868;2024-03-23T14:11:02;16.60;99.90
38938;DHT22;24727;51.974;20.868;2024-03-23T14:13:29;16.80;99.90
38938;DHT22;24727;51.974;20.868;2024-03-23T14:15:55;16.80;99.90
38938;DHT22;24727;51.974;20.868;2024-03-23T14:18:21;16.60;99.90
38938;DHT22;24727;51.974;20.868;2024-03-23T14:20:50;16.70;99.90
38938;DHT22;24727;51.974;20.868;2024-03-23T14:23:16;16.90;99.90
38938;DHT22;24727;51.974;20.868;2024-03-23T14:25:42;16.90;99.90
38938;DHT22;24727;51.974;20.868;2024-03-23T14:28:08;16.90;99.90
38938;DHT22;24727;51.974;20.868;2024-03-23T14:30:43;17.10;99.90
38938;DHT22;24727;51.974;20.868;2024-03-23T14:33:09;17.40;99.90
38938;DHT22;24727;51.974;20.868;2024-03-23T14:35:35;17.40;99.90
38938;DHT22;24727;51.974;20.868;2024-03-23T14:38:02;17.20;99.90
38938;DHT22;24727;51.974;20.868;2024-03-23T14:40:28;17.00;99.90
38938;DHT22;24727;51.974;20.868;2024-03-23T14:42:54;16.70;99.90
38938;DHT22;24727;51.974;20.868;2024-03-23T14:45:23;16.30;99.90
38938;DHT22;24727;51.974;20.868;2024-03-23T14:47:53;15.80;99.90
38938;DHT22;24727;51.974;20.868;2024-03-23T14:50:19;15.80;99.90
38938;DHT22;24727;51.974;20.868;2024-03-23T14:52:48;16.00;99.90
38938;DHT22;24727;51.974;20.868;2024-03-23T14:55:14;16.20;99.90
38938;DHT22;24727;51.974;20.868;2024-03-23T14:57:40;16.30;99.90
38938;DHT22;24727;51.974;20.868;2024-03-23T15:00:09;15.90;99.90
38938;DHT22;24727;51.974;20.868;2024-03-23T15:02:39;15.80;99.90
38938;DHT22;24727;51.974;20.868;2024-03-23T15:05:06;15.70;99.90
38938;DHT22;24727;51.974;20.868;2024-03-23T15:07:36;16.00;99.90
38938;DHT22;24727;51.974;20.868;2024-03-23T15:10:05;16.10;99.90
38938;DHT22;24727;51.974;20.868;2024-03-23T15:12:31;16.10;99.90
38938;DHT22;24727;51.974;20.868;2024-03-23T15:14:59;15.90;99.90
38938;DHT22;24727;51.974;20.868;2024-03-23T15:17:26;15.70;99.90
38938;DHT22;24727;51.974;20.868;2024-03-23T15:19:52;15.00;99.90
38938;DHT22;24727;51.974;20.868;2024-03-23T15:22:19;12.90;1.00
38938;DHT22;24727;51.974;20.868;2024-03-23T15:24:47;12.10;1.00
38938;DHT22;24727;51.974;20.868;2024-03-23T15:27:16;11.20;1.00
38938;DHT22;24727;51.974;20.868;2024-03-23T15:29:44;10.90;1.00
38938;DHT22;24727;51.974;20.868;2024-03-23T15:32:11;10.50;4.20
38938;DHT22;24727;51.974;20.868;2024-03-23T15:34:37;10.40;10.50
38938;DHT22;24727;51.974;20.868;2024-03-23T15:37:09;10.30;17.80
38938;DHT22;24727;51.974;20.868;2024-03-23T15:39:35;10.30;19.60
38938;DHT22;24727;51.974;20.868;2024-03-23T15:42:01;10.20;19.30
38938;DHT22;24727;51.974;20.868;2024-03-23T15:44:30;10.20;20.10
38938;DHT22;24727;51.974;20.868;2024-03-23T15:46:56;10.10;21.00
38938;DHT22;24727;51.974;20.868;2024-03-23T15:49:34;10.20;22.10
38938;DHT22;24727;51.974;20.868;2024-03-23T15:52:00;10.10;23.60
38938;DHT22;24727;51.974;20.868;2024-03-23T15:54:26;10.20;24.40
38938;DHT22;24727;51.974;20.868;2024-03-23T15:56:52;10.50;35.80
38938;DHT22;24727;51.974;20.868;2024-03-23T15:59:18;11.30;47.50
38938;DHT22;24727;51.974;20.868;2024-03-23T16:01:44;11.50;44.00
38938;DHT22;24727;51.974;20.868;2024-03-23T16:04:10;11.80;47.70
38938;DHT22;24727;51.974;20.868;2024-03-23T16:06:38;12.10;49.10
38938;DHT22;24727;51.974;20.868;2024-03-23T16:09:04;12.40;42.00
38938;DHT22;24727;51.974;20.868;2024-03-23T16:11:30;12.60;23.90
38938;DHT22;24727;51.974;20.868;2024-03-23T16:13:56;12.70;8.80
38938;DHT22;24727;51.974;20.868;2024-03-23T16:16:22;12.80;1.00
38938;DHT22;24727;51.974;20.868;2024-03-23T16:18:49;13.10;1.00
38938;DHT22;24727;51.974;20.868;2024-03-23T16:21:15;13.30;1.00
38938;DHT22;24727;51.974;20.868;2024-03-23T16:23:42;13.10;1.00
38938;DHT22;24727;51.974;20.868;2024-03-23T16:26:10;12.90;1.00
38938;DHT22;24727;51.974;20.868;2024-03-23T16:28:38;12.30;1.00
38938;DHT22;24727;51.974;20.868;2024-03-23T16:31:08;12.10;1.00
38938;DHT22;24727;51.974;20.868;2024-03-23T16:33:35;11.60;1.00
38938;DHT22;24727;51.974;20.868;2024-03-23T16:36:05;11.80;1.00
38938;DHT22;24727;51.974;20.868;2024-03-23T16:38:33;11.80;1.00
38938;DHT22;24727;51.974;20.868;2024-03-23T16:41:02;11.80;1.00
38938;DHT22;24727;51.974;20.868;2024-03-23T16:43:28;11.70;1.00
38938;DHT22;24727;51.974;20.868;2024-03-23T16:46:05;11.70;1.00
38938;DHT22;24727;51.974;20.868;2024-03-23T16:48:32;11.50;1.00
38938;DHT22;24727;51.974;20.868;2024-03-23T16:50:59;11.50;1.00
38938;DHT22;24727;51.974;20.868;2024-03-23T16:53:26;11.80;1.00
38938;DHT22;24727;51.974;20.868;2024-03-23T16:55:56;11.70;1.00
38938;DHT22;24727;51.974;20.868;2024-03-23T16:58:26;11.10;1.00
38938;DHT22;24727;51.974;20.868;2024-03-23T17:00:52;11.00;1.00
38938;DHT22;24727;51.974;20.868;2024-03-23T17:03:22;10.80;1.00
38938;DHT22;24727;51.974;20.868;2024-03-23T17:05:48;10.80;1.00
38938;DHT22;24727;51.974;20.868;2024-03-23T17:08:15;10.50;1.00
38938;DHT22;24727;51.974;20.868;2024-03-23T17:10:41;10.40;1.00
38938;DHT22;24727;51.974;20.868;2024-03-23T17:13:07;10.20;1.00
38938;DHT22;24727;51.974;20.868;2024-03-23T17:15:41;10.10;1.00